Time;durP1;ratioP1;P1;durP2;ratioP2;P2;SDS_P1;SDS_P2;PMS_P1;PMS_P2;Temp;Humidity;BMP_temperature;BMP_pressure;BME280_temperature;BME280_humidity;BME280_pressure;Samples;Min_cycle;Max_cycle;Signal;HPM_P1;HPM_P2
2020/12/10 00:01:34;;;;;;;68.13;44.20;;;5.60;99.90;;;;;;5091640;28;20965;-77
2020/12/10 00:04:00;;;;;;;75.22;46.35;;;5.60;99.90;;;;;;5072689;28;20464;-77
2020/12/10 00:06:26;;;;;;;101.90;54.38;;;5.60;99.90;;;;;;5072515;28;20785;-77
2020/12/10 00:08:52;;;;;;;111.15;58.88;;;5.60;99.90;;;;;;5091186;28;20375;-77
2020/12/10 00:11:18;;;;;;;75.25;47.95;;;5.60;99.90;;;;;;5091014;28;20396;-77
2020/12/10 00:13:44;;;;;;;59.20;39.63;;;5.60;99.90;;;;;;5091003;28;20382;-77
2020/12/10 00:16:11;;;;;;;61.73;37.77;;;5.50;99.90;;;;;;5090479;28;20384;-76
2020/12/10 00:18:38;;;;;;;60.90;40.45;;;5.50;99.90;;;;;;5072383;28;20365;-77
2020/12/10 00:21:04;;;;;;;76.63;47.47;;;5.50;99.90;;;;;;5090244;28;20368;-77
2020/12/10 00:23:29;;;;;;;71.93;45.45;;;5.50;99.90;;;;;;5090450;28;20365;-77
2020/12/10 00:25:56;;;;;;;54.53;38.17;;;5.40;99.90;;;;;;5090339;28;20372;-77
2020/12/10 00:28:22;;;;;;;41.57;31.70;;;5.40;99.90;;;;;;5090491;28;20387;-76
2020/12/10 00:30:47;;;;;;;43.72;32.17;;;5.40;99.90;;;;;;5090572;28;20847;-79
2020/12/10 00:33:13;;;;;;;43.65;31.27;;;5.40;99.90;;;;;;5092211;28;20372;-79
2020/12/10 00:35:39;;;;;;;50.30;35.60;;;5.30;99.90;;;;;;5092107;28;20383;-79
2020/12/10 00:38:05;;;;;;;52.30;36.90;;;5.30;99.90;;;;;;5091628;28;20371;-79
2020/12/10 00:40:31;;;;;;;45.42;32.58;;;5.40;99.90;;;;;;5074505;28;20463;-79
2020/12/10 00:42:57;;;;;;;62.37;43.67;;;5.40;99.90;;;;;;5073747;28;20398;-79
2020/12/10 00:45:23;;;;;;;69.40;46.77;;;5.40;99.90;;;;;;5092342;28;21248;-79
2020/12/10 00:47:48;;;;;;;70.20;46.03;;;5.40;99.90;;;;;;5092004;28;20368;-78
2020/12/10 00:50:14;;;;;;;67.23;44.33;;;5.50;99.90;;;;;;5092251;28;20770;-79
2020/12/10 00:52:40;;;;;;;64.87;43.90;;;5.50;99.90;;;;;;5073832;28;20368;-80
2020/12/10 00:55:06;;;;;;;62.87;42.07;;;5.50;99.90;;;;;;5091947;28;20395;-79
2020/12/10 00:57:31;;;;;;;68.23;44.50;;;5.40;99.90;;;;;;5092320;28;20418;-79
2020/12/10 00:59:57;;;;;;;75.13;47.93;;;5.40;99.90;;;;;;5092044;28;20361;-79
2020/12/10 01:02:23;;;;;;;74.15;48.22;;;5.50;99.90;;;;;;5092097;28;20365;-79
2020/12/10 01:04:49;;;;;;;72.18;48.28;;;5.50;99.90;;;;;;5092130;28;20899;-79
2020/12/10 01:07:15;;;;;;;45.00;32.40;;;5.60;99.90;;;;;;5091789;28;20368;-79
2020/12/10 01:09:40;;;;;;;46.17;32.85;;;5.60;99.90;;;;;;5091899;28;20866;-79
2020/12/10 01:12:06;;;;;;;58.85;39.50;;;5.60;99.90;;;;;;5092358;28;20404;-79
2020/12/10 01:14:32;;;;;;;97.28;48.85;;;5.70;99.90;;;;;;5095710;28;20391;-80
2020/12/10 01:16:59;;;;;;;61.83;40.20;;;5.70;99.90;;;;;;5095956;28;20851;-80
2020/12/10 01:19:25;;;;;;;54.53;36.95;;;5.70;99.90;;;;;;5077415;28;20414;-79
2020/12/10 01:21:50;;;;;;;48.45;31.23;;;5.70;99.90;;;;;;5077680;28;20376;-79
2020/12/10 01:24:16;;;;;;;44.35;29.92;;;5.70;99.90;;;;;;5077018;28;20385;-79
2020/12/10 01:26:44;;;;;;;39.78;27.85;;;5.70;99.90;;;;;;5077269;28;20391;-79
2020/12/10 01:29:10;;;;;;;40.90;28.80;;;5.70;99.90;;;;;;5077473;28;20900;-80
2020/12/10 01:31:35;;;;;;;47.10;33.97;;;5.70;99.90;;;;;;5077167;28;20361;-80
2020/12/10 01:34:01;;;;;;;43.25;32.22;;;5.70;99.90;;;;;;5095122;28;20455;-79
2020/12/10 01:36:30;;;;;;;35.60;27.00;;;5.70;99.90;;;;;;5095327;28;20789;-79
2020/12/10 01:38:57;;;;;;;46.25;33.20;;;5.70;99.90;;;;;;5076699;28;20421;-79
2020/12/10 01:41:29;;;;;;;41.03;30.48;;;5.70;99.90;;;;;;5095024;28;20411;-79
2020/12/10 01:44:06;;;;;;;51.63;36.97;;;5.80;99.90;;;;;;5095436;28;20831;-79
2020/12/10 01:46:33;;;;;;;62.15;41.70;;;5.70;99.90;;;;;;5077467;28;20707;-79
2020/12/10 01:48:59;;;;;;;87.53;47.35;;;5.70;99.90;;;;;;5095227;28;20363;-79
2020/12/10 01:51:25;;;;;;;334.33;129.13;;;5.80;99.90;;;;;;5076758;28;20420;-80
2020/12/10 01:53:51;;;;;;;115.18;56.03;;;5.70;99.90;;;;;;5095084;28;20451;-79
2020/12/10 01:56:17;;;;;;;75.57;41.90;;;5.70;99.90;;;;;;5095302;28;20486;-79
2020/12/10 01:58:44;;;;;;;108.93;53.45;;;5.80;99.90;;;;;;5095077;28;20462;-79
2020/12/10 02:01:12;;;;;;;46.65;33.40;;;5.80;99.90;;;;;;5094630;28;20869;-79
2020/12/10 02:03:37;;;;;;;44.83;34.00;;;5.70;99.90;;;;;;5095326;28;20367;-79
2020/12/10 02:06:03;;;;;;;50.15;36.85;;;5.70;99.90;;;;;;5094447;28;20373;-80
2020/12/10 02:08:29;;;;;;;46.20;33.13;;;5.70;99.90;;;;;;5094687;28;20400;-80
2020/12/10 02:10:55;;;;;;;45.53;34.53;;;5.70;99.90;;;;;;5076122;28;20414;-80
2020/12/10 02:13:21;;;;;;;49.80;36.83;;;5.70;99.90;;;;;;5076501;28;20847;-80
2020/12/10 02:15:48;;;;;;;59.03;36.07;;;5.70;99.90;;;;;;5075986;28;20404;-80
2020/12/10 02:18:14;;;;;;;258.67;91.47;;;5.60;99.90;;;;;;5076143;28;20376;-80
2020/12/10 02:20:40;;;;;;;103.30;43.38;;;5.70;99.90;;;;;;5094788;28;20410;-80
2020/12/10 02:23:07;;;;;;;53.78;35.30;;;5.60;99.90;;;;;;5076317;28;20417;-80
2020/12/10 02:25:33;;;;;;;79.63;56.38;;;5.60;99.90;;;;;;5075016;28;20711;-80
2020/12/10 02:28:15;;;;;;;73.10;53.47;;;5.60;99.90;;;;;;5076511;28;20383;-80
2020/12/10 02:30:41;;;;;;;82.35;57.05;;;5.50;99.90;;;;;;5094214;28;20376;-80
2020/12/10 02:33:09;;;;;;;86.95;59.90;;;5.50;99.90;;;;;;5094208;28;20369;-80
2020/12/10 02:35:37;;;;;;;86.13;58.85;;;5.60;99.90;;;;;;5093650;28;20388;-80
2020/12/10 02:38:06;;;;;;;97.72;65.85;;;5.50;99.90;;;;;;5094055;28;20348;-80
2020/12/10 02:40:44;;;;;;;89.20;60.35;;;5.50;99.90;;;;;;5094270;28;20397;-80
2020/12/10 02:43:10;;;;;;;90.10;62.47;;;5.50;99.90;;;;;;5075507;28;20368;-80
2020/12/10 02:45:38;;;;;;;89.90;62.70;;;5.50;99.90;;;;;;5094032;28;20377;-80
2020/12/10 02:48:04;;;;;;;87.47;57.80;;;5.60;99.90;;;;;;5093716;28;20364;-80
2020/12/10 02:50:30;;;;;;;82.68;54.25;;;5.60;99.90;;;;;;5075850;28;20364;-79
2020/12/10 02:52:56;;;;;;;79.07;52.47;;;5.60;99.90;;;;;;5093760;28;20461;-79
2020/12/10 02:55:22;;;;;;;74.67;47.27;;;5.60;99.90;;;;;;5093838;28;20984;-80
2020/12/10 02:57:47;;;;;;;73.23;50.83;;;5.60;99.90;;;;;;5093604;28;20363;-80
2020/12/10 03:00:14;;;;;;;62.78;44.95;;;5.60;99.90;;;;;;5075534;28;20704;-80
2020/12/10 03:02:40;;;;;;;64.03;45.40;;;5.60;99.90;;;;;;5076061;28;20460;-80
2020/12/10 03:05:06;;;;;;;60.75;44.00;;;5.60;99.90;;;;;;5075729;28;20787;-79
2020/12/10 03:07:33;;;;;;;58.42;42.53;;;5.60;99.90;;;;;;5093109;28;20459;-79
2020/12/10 03:09:59;;;;;;;49.03;36.78;;;5.60;99.90;;;;;;5075020;28;20431;-79
2020/12/10 03:12:25;;;;;;;63.85;47.28;;;5.60;99.90;;;;;;5093326;28;20369;-79
2020/12/10 03:14:51;;;;;;;80.43;43.37;;;5.60;99.90;;;;;;5093098;28;20418;-79
2020/12/10 03:17:17;;;;;;;52.55;38.63;;;5.60;99.90;;;;;;5093056;28;20368;-80
2020/12/10 03:19:43;;;;;;;47.88;37.15;;;5.60;99.90;;;;;;5093237;28;20383;-80
2020/12/10 03:22:13;;;;;;;48.60;37.50;;;5.60;99.90;;;;;;5074885;28;20422;-80
2020/12/10 03:24:39;;;;;;;51.80;38.42;;;5.60;99.90;;;;;;5093409;28;20858;-79
2020/12/10 03:27:05;;;;;;;56.43;43.03;;;5.60;99.90;;;;;;5093517;28;20451;-79
2020/12/10 03:29:30;;;;;;;63.13;46.67;;;5.60;99.90;;;;;;5093337;28;20468;-80
2020/12/10 03:31:56;;;;;;;121.43;52.85;;;5.60;99.90;;;;;;5093019;28;20368;-79
2020/12/10 03:34:22;;;;;;;64.80;46.88;;;5.60;99.90;;;;;;5074610;28;20399;-79
2020/12/10 03:36:53;;;;;;;68.72;50.80;;;5.60;99.90;;;;;;5092331;28;20447;-78
2020/12/10 03:39:20;;;;;;;62.17;45.97;;;5.60;99.90;;;;;;5092540;28;20392;-79
2020/12/10 03:41:47;;;;;;;82.20;55.20;;;5.60;99.90;;;;;;5092449;28;20481;-79
2020/12/10 03:44:13;;;;;;;71.53;47.45;;;5.60;99.90;;;;;;5074455;28;20360;-79
2020/12/10 03:46:39;;;;;;;59.40;43.95;;;5.60;99.90;;;;;;5092862;28;20369;-79
2020/12/10 03:49:06;;;;;;;73.88;53.47;;;5.50;99.90;;;;;;5074659;28;20451;-79
2020/12/10 03:51:32;;;;;;;120.13;64.22;;;5.60;99.90;;;;;;5074867;28;20708;-79
2020/12/10 03:53:58;;;;;;;68.83;46.00;;;5.50;99.90;;;;;;5074360;28;20590;-79
2020/12/10 03:56:24;;;;;;;57.70;41.97;;;5.50;99.90;;;;;;5074265;28;20393;-79
2020/12/10 03:58:49;;;;;;;62.80;45.07;;;5.50;99.90;;;;;;5075035;28;20364;-79
2020/12/10 04:01:15;;;;;;;70.13;48.73;;;5.50;99.90;;;;;;5092725;28;20361;-79
2020/12/10 04:03:41;;;;;;;72.53;51.37;;;5.50;99.90;;;;;;5092793;28;20356;-79
2020/12/10 04:06:07;;;;;;;72.68;51.08;;;5.50;99.90;;;;;;5092508;28;20403;-79
2020/12/10 04:08:33;;;;;;;68.80;48.20;;;5.50;99.90;;;;;;5092465;28;20392;-79
2020/12/10 04:10:59;;;;;;;69.60;50.00;;;5.50;99.90;;;;;;5073945;28;20897;-78
2020/12/10 04:13:25;;;;;;;61.65;46.40;;;5.50;99.90;;;;;;5092613;28;20380;-78
2020/12/10 04:15:50;;;;;;;67.27;49.07;;;5.50;99.90;;;;;;5092340;28;20473;-78
2020/12/10 04:18:16;;;;;;;66.57;47.40;;;5.50;99.90;;;;;;5092232;28;20414;-78
2020/12/10 04:20:42;;;;;;;56.60;44.92;;;5.50;99.90;;;;;;5074263;28;20364;-78
2020/12/10 04:23:08;;;;;;;57.50;43.45;;;5.40;99.90;;;;;;5092179;28;20364;-78
2020/12/10 04:25:34;;;;;;;71.47;50.47;;;5.40;99.90;;;;;;5092152;28;20416;-78
2020/12/10 04:28:00;;;;;;;61.95;47.35;;;5.40;99.90;;;;;;5074443;28;20365;-79
2020/12/10 04:30:26;;;;;;;58.17;44.13;;;5.40;99.90;;;;;;5092184;28;20459;-79
2020/12/10 04:32:51;;;;;;;54.08;41.17;;;5.40;99.90;;;;;;5092274;28;20839;-79
2020/12/10 04:35:17;;;;;;;56.97;44.92;;;5.40;99.90;;;;;;5092103;28;20724;-79
2020/12/10 04:37:43;;;;;;;58.70;43.40;;;5.40;99.90;;;;;;5074036;28;20709;-79
2020/12/10 04:40:09;;;;;;;58.00;45.35;;;5.50;99.90;;;;;;5092298;28;20462;-79
2020/12/10 04:42:37;;;;;;;60.07;47.10;;;5.50;99.90;;;;;;5074139;28;20827;-78
2020/12/10 04:45:03;;;;;;;64.33;48.83;;;5.40;99.90;;;;;;5074039;28;20791;-78
2020/12/10 04:47:30;;;;;;;69.32;50.90;;;5.40;99.90;;;;;;5075052;28;20376;-79
2020/12/10 04:50:00;;;;;;;75.03;55.30;;;5.40;99.90;;;;;;5078336;28;20453;-79
2020/12/10 04:52:27;;;;;;;85.32;59.83;;;5.40;99.90;;;;;;5096166;28;20451;-79
2020/12/10 04:54:53;;;;;;;83.50;57.33;;;5.40;99.90;;;;;;5078569;28;20945;-79
2020/12/10 04:57:20;;;;;;;85.93;58.53;;;5.40;99.90;;;;;;5078194;28;20467;-79
2020/12/10 04:59:46;;;;;;;83.57;58.13;;;5.40;99.90;;;;;;5095739;28;20355;-79
2020/12/10 05:02:12;;;;;;;116.28;61.53;;;5.40;99.90;;;;;;5077897;28;20953;-79
2020/12/10 05:04:39;;;;;;;65.10;49.13;;;5.30;99.90;;;;;;5077524;28;20368;-79
2020/12/10 05:07:05;;;;;;;59.20;44.40;;;5.30;99.90;;;;;;5077996;28;20390;-79
2020/12/10 05:09:31;;;;;;;274.02;71.85;;;5.30;99.90;;;;;;5095518;28;20455;-79
2020/12/10 05:11:56;;;;;;;94.65;68.13;;;5.30;99.90;;;;;;5077547;28;20463;-79
2020/12/10 05:14:23;;;;;;;71.97;53.90;;;5.30;99.90;;;;;;5077536;28;20376;-79
2020/12/10 05:17:13;;;;;;;63.83;48.47;;;5.30;99.90;;;;;;5077991;28;20421;-79
2020/12/10 05:19:39;;;;;;;70.20;51.35;;;5.30;99.90;;;;;;5095544;28;21075;-79
2020/12/10 05:22:07;;;;;;;63.60;47.40;;;5.20;99.90;;;;;;5095623;28;20449;-80
2020/12/10 05:24:34;;;;;;;60.40;44.67;;;5.20;99.90;;;;;;5077555;28;20511;-80
2020/12/10 05:27:20;;;;;;;69.97;53.80;;;5.20;99.90;;;;;;5095451;28;20356;-79
2020/12/10 05:29:47;;;;;;;78.20;57.05;;;5.20;99.90;;;;;;5076919;28;20922;-79
2020/12/10 05:32:32;;;;;;;61.25;44.22;;;5.20;99.90;;;;;;5077884;28;20371;-80
2020/12/10 05:34:59;;;;;;;59.33;43.88;;;5.20;99.90;;;;;;5095720;28;20396;-80
2020/12/10 05:37:27;;;;;;;55.45;42.05;;;5.20;99.90;;;;;;5095263;28;20426;-80
2020/12/10 05:40:02;;;;;;;54.67;42.67;;;5.30;99.90;;;;;;5077580;28;20456;-80
2020/12/10 05:42:35;;;;;;;57.03;43.65;;;5.30;99.90;;;;;;5095179;28;20373;-80
2020/12/10 05:45:23;;;;;;;59.53;45.63;;;5.30;99.90;;;;;;5095262;28;20380;-80
2020/12/10 05:47:59;;;;;;;150.45;82.85;;;5.30;99.90;;;;;;5076910;28;20918;-80
2020/12/10 05:50:29;;;;;;;130.40;77.40;;;5.30;99.90;;;;;;5076609;28;20400;-80
2020/12/10 05:53:01;;;;;;;108.70;77.25;;;5.30;99.90;;;;;;5077106;28;20829;-80
2020/12/10 05:55:28;;;;;;;102.83;76.37;;;5.30;99.90;;;;;;5094794;28;20747;-80
2020/12/10 05:57:55;;;;;;;73.40;58.50;;;5.30;99.90;;;;;;5094510;28;20368;-80
2020/12/10 06:00:21;;;;;;;77.45;58.78;;;5.30;99.90;;;;;;5095159;28;20360;-80
2020/12/10 06:02:48;;;;;;;69.90;53.92;;;5.30;99.90;;;;;;5076914;28;20392;-80
2020/12/10 06:05:15;;;;;;;101.50;79.57;;;5.20;99.90;;;;;;5094887;28;20391;-80
2020/12/10 06:07:57;;;;;;;111.93;86.65;;;5.20;99.90;;;;;;5095239;28;20498;-80
2020/12/10 06:10:25;;;;;;;103.90;82.32;;;5.20;99.90;;;;;;5094341;28;20789;-80
2020/12/10 06:12:51;;;;;;;118.82;93.20;;;5.20;99.90;;;;;;5094421;28;21172;-80
2020/12/10 06:15:28;;;;;;;106.95;86.88;;;5.20;99.90;;;;;;5076213;28;21359;-79
2020/12/10 06:18:01;;;;;;;114.43;92.50;;;5.20;99.90;;;;;;5094426;28;20447;-80
2020/12/10 06:20:37;;;;;;;151.93;107.65;;;5.20;99.90;;;;;;5093951;28;20371;-79
2020/12/10 06:23:35;;;;;;;165.90;121.23;;;5.20;99.90;;;;;;5076205;28;20820;-79
2020/12/10 06:26:22;;;;;;;183.50;131.38;;;5.20;99.90;;;;;;5094766;28;20369;-79
2020/12/10 06:28:48;;;;;;;180.60;123.15;;;5.20;99.90;;;;;;5076432;28;20467;-79
2020/12/10 06:31:14;;;;;;;159.90;111.53;;;5.20;99.90;;;;;;5076246;28;20960;-79
2020/12/10 06:33:44;;;;;;;179.00;110.03;;;5.30;99.90;;;;;;5094425;28;20692;-80
2020/12/10 06:36:27;;;;;;;151.27;102.93;;;5.30;99.90;;;;;;5075652;28;20392;-80
2020/12/10 06:38:54;;;;;;;144.73;99.13;;;5.30;99.90;;;;;;5075698;28;20364;-80
2020/12/10 06:41:21;;;;;;;182.40;99.63;;;5.20;99.90;;;;;;5094080;28;21057;-79
2020/12/10 06:43:47;;;;;;;136.07;91.45;;;5.30;99.90;;;;;;5093996;28;20368;-79
2020/12/10 06:46:13;;;;;;;174.13;98.85;;;5.30;99.90;;;;;;5093824;28;20868;-79
2020/12/10 06:48:41;;;;;;;159.32;103.10;;;5.30;99.90;;;;;;5075830;28;20372;-80
2020/12/10 06:51:19;;;;;;;111.20;78.97;;;5.30;99.90;;;;;;5093923;28;20383;-80
2020/12/10 06:54:00;;;;;;;107.65;73.05;;;5.30;99.90;;;;;;5094428;28;20368;-80
2020/12/10 06:56:29;;;;;;;111.88;77.95;;;5.30;99.90;;;;;;5075772;28;20454;-81
2020/12/10 06:58:59;;;;;;;124.90;80.43;;;5.30;99.90;;;;;;5075964;28;20419;-80
2020/12/10 07:01:35;;;;;;;121.20;77.47;;;5.30;99.90;;;;;;5075442;28;20372;-79
2020/12/10 07:07:12;;;;;;;128.00;84.07;;;5.40;99.90;;;;;;5093653;28;20443;-80
2020/12/10 07:09:56;;;;;;;99.13;72.45;;;5.40;99.90;;;;;;5092986;28;20862;-80
2020/12/10 07:12:29;;;;;;;93.32;69.30;;;5.30;99.90;;;;;;5074975;28;20392;-80
2020/12/10 07:15:15;;;;;;;126.03;95.68;;;5.40;99.90;;;;;;5093230;28;20441;-80
2020/12/10 07:17:51;;;;;;;92.97;74.03;;;5.40;99.90;;;;;;5093771;28;20352;-79
2020/12/10 07:20:17;;;;;;;94.80;75.57;;;5.40;99.90;;;;;;5076034;28;20406;-79
2020/12/10 07:22:43;;;;;;;109.80;83.30;;;5.40;99.90;;;;;;5075257;28;20368;-79
2020/12/10 07:25:09;;;;;;;98.13;76.10;;;5.40;99.90;;;;;;5075512;28;20383;-79
2020/12/10 07:27:35;;;;;;;101.72;76.47;;;5.40;99.90;;;;;;5093523;28;20713;-79
2020/12/10 07:30:01;;;;;;;86.35;65.68;;;5.50;99.90;;;;;;5092872;28;20365;-79
2020/12/10 07:32:27;;;;;;;80.10;61.22;;;5.50;99.90;;;;;;5074769;28;20387;-79
2020/12/10 07:34:52;;;;;;;81.75;62.55;;;5.50;99.90;;;;;;5075159;28;20747;-79
2020/12/10 07:37:24;;;;;;;85.43;65.43;;;5.50;99.90;;;;;;5093011;28;20410;-79
2020/12/10 07:39:50;;;;;;;93.60;67.10;;;5.50;99.90;;;;;;5075397;28;20364;-79
2020/12/10 07:42:19;;;;;;;116.18;79.32;;;5.50;99.90;;;;;;5092640;28;20380;-79
2020/12/10 07:44:45;;;;;;;185.77;91.03;;;5.50;99.90;;;;;;5092846;28;20700;-79
2020/12/10 07:47:12;;;;;;;141.27;81.70;;;5.60;99.90;;;;;;5092799;28;20370;-79
2020/12/10 07:49:38;;;;;;;110.57;72.70;;;5.60;99.90;;;;;;5074433;28;20382;-80
2020/12/10 07:52:12;;;;;;;102.53;69.95;;;5.60;99.90;;;;;;5074792;28;20404;-79
2020/12/10 07:54:56;;;;;;;101.88;70.43;;;5.70;99.90;;;;;;5092723;28;20392;-80
2020/12/10 07:57:29;;;;;;;104.85;73.93;;;5.70;99.90;;;;;;5092609;28;20843;-80
2020/12/10 08:00:07;;;;;;;92.38;68.80;;;5.70;99.90;;;;;;5074426;28;20430;-80
2020/12/10 08:03:18;;;;;;;74.60;57.38;;;5.80;99.90;;;;;;5074388;28;20426;-80
2020/12/10 08:05:54;;;;;;;64.15;51.58;;;5.70;99.90;;;;;;5059703;28;20383;-79
2020/12/10 08:08:32;;;;;;;55.95;45.22;;;5.80;99.90;;;;;;5092722;28;20364;-80
2020/12/10 08:11:12;;;;;;;58.05;45.80;;;5.80;99.90;;;;;;5092166;28;20396;-79
2020/12/10 08:13:54;;;;;;;52.63;42.07;;;5.80;99.90;;;;;;5074430;28;20571;-79
2020/12/10 08:16:20;;;;;;;52.17;40.88;;;5.90;99.90;;;;;;5074650;28;20731;-79
2020/12/10 08:18:46;;;;;;;47.75;37.42;;;5.90;99.90;;;;;;5092298;28;20372;-79
2020/12/10 08:21:11;;;;;;;45.05;38.47;;;5.90;99.90;;;;;;5074509;28;20392;-80
2020/12/10 08:23:45;;;;;;;43.72;35.50;;;6.00;99.90;;;;;;5076900;28;20371;-79
2020/12/10 08:26:15;;;;;;;47.65;35.88;;;6.00;99.90;;;;;;5096334;28;20369;-80
2020/12/10 08:28:55;;;;;;;53.22;41.80;;;6.10;99.90;;;;;;5096325;28;20372;-79
2020/12/10 08:31:25;;;;;;;47.28;37.50;;;6.10;99.90;;;;;;5096421;28;20462;-79
2020/12/10 08:33:54;;;;;;;130.10;37.35;;;6.20;99.90;;;;;;5095082;28;20473;-77
2020/12/10 08:36:34;;;;;;;116.47;34.70;;;6.70;99.90;;;;;;5094765;28;20470;-78
2020/12/10 08:39:04;;;;;;;51.38;36.28;;;7.10;99.90;;;;;;5093389;28;20760;-81
2020/12/10 08:41:35;;;;;;;73.60;35.88;;;6.90;99.90;;;;;;5095421;28;20409;-79
2020/12/10 08:44:06;;;;;;;41.03;32.63;;;6.90;99.90;;;;;;5095628;28;20381;-81
2020/12/10 08:46:34;;;;;;;73.22;36.83;;;6.80;99.90;;;;;;5077283;28;20364;-81
2020/12/10 08:49:15;;;;;;;207.65;137.70;;;6.80;99.90;;;;;;5095474;28;20375;-80
2020/12/10 08:51:43;;;;;;;253.40;122.60;;;7.40;99.90;;;;;;5093466;28;20365;-81
2020/12/10 08:54:09;;;;;;;40.80;32.55;;;7.70;99.90;;;;;;5074068;28;21475;-81
2020/12/10 08:56:38;;;;;;;42.57;33.47;;;7.40;99.90;;;;;;5092707;28;20419;-81
2020/12/10 08:59:05;;;;;;;44.33;36.25;;;7.10;99.90;;;;;;5093420;28;20797;-82
2020/12/10 09:01:31;;;;;;;38.40;31.97;;;7.00;99.90;;;;;;5095412;28;20360;-81
2020/12/10 09:03:57;;;;;;;42.00;33.88;;;6.80;99.90;;;;;;5095741;28;20360;-81
2020/12/10 09:06:35;;;;;;;41.75;34.38;;;6.70;99.90;;;;;;5095596;28;20413;-80
2020/12/10 09:09:01;;;;;;;41.38;31.95;;;6.70;99.90;;;;;;5095570;28;20368;-80
2020/12/10 09:11:27;;;;;;;43.10;34.60;;;6.60;99.90;;;;;;5095352;28;20406;-80
2020/12/10 09:13:53;;;;;;;42.78;34.28;;;6.60;99.90;;;;;;5094869;28;20918;-80
2020/12/10 09:16:19;;;;;;;47.07;36.77;;;6.60;99.90;;;;;;5095398;28;20475;-80
2020/12/10 09:18:45;;;;;;;51.40;41.07;;;6.60;99.90;;;;;;5095563;28;20368;-80
2020/12/10 09:21:11;;;;;;;54.33;39.80;;;6.70;99.90;;;;;;5077129;28;20368;-80
2020/12/10 09:23:43;;;;;;;63.05;45.75;;;6.60;99.90;;;;;;5077103;28;20369;-80
2020/12/10 09:26:16;;;;;;;47.03;37.58;;;6.70;99.90;;;;;;5095326;28;20861;-80
2020/12/10 09:28:42;;;;;;;56.97;42.42;;;6.70;99.90;;;;;;5095190;28;20364;-82
2020/12/10 09:31:09;;;;;;;47.10;37.38;;;6.80;99.90;;;;;;5077465;28;20415;-80
2020/12/10 09:33:35;;;;;;;60.03;44.10;;;6.80;99.90;;;;;;5076986;28;20432;-81
2020/12/10 09:36:01;;;;;;;83.80;43.60;;;6.90;99.90;;;;;;5094676;28;20785;-81
2020/12/10 09:38:27;;;;;;;392.63;263.15;;;7.10;99.90;;;;;;5094669;28;20384;-80
2020/12/10 09:40:53;;;;;;;137.27;89.30;;;7.20;99.90;;;;;;5076942;28;20855;-81
2020/12/10 09:43:19;;;;;;;62.38;48.72;;;7.20;99.90;;;;;;5077098;28;20372;-80
2020/12/10 09:45:50;;;;;;;47.90;39.65;;;7.30;99.90;;;;;;5076537;28;20383;-80
2020/12/10 09:48:16;;;;;;;42.25;33.10;;;7.30;99.90;;;;;;5076839;28;20746;-82
2020/12/10 09:50:42;;;;;;;37.88;31.60;;;7.40;99.90;;;;;;5094770;28;20372;-80
2020/12/10 09:58:00;;;;;;;38.17;32.08;;;7.10;99.90;;;;;;5095009;28;20392;-80
2020/12/10 10:00:26;;;;;;;40.93;33.77;;;7.20;99.90;;;;;;5095187;28;20388;-80
2020/12/10 10:02:52;;;;;;;42.53;35.20;;;7.20;99.90;;;;;;5076732;28;20368;-81
2020/12/10 10:05:18;;;;;;;43.08;35.25;;;7.30;99.90;;;;;;5077119;28;20412;-81
2020/12/10 10:07:44;;;;;;;40.55;34.13;;;7.30;99.90;;;;;;5073461;28;20745;-80
2020/12/10 10:10:09;;;;;;;34.97;29.92;;;7.30;99.90;;;;;;5094456;28;20396;-83
2020/12/10 10:12:35;;;;;;;43.97;34.97;;;7.30;99.90;;;;;;5075907;28;20376;-82
2020/12/10 10:15:01;;;;;;;52.53;40.15;;;7.40;99.90;;;;;;5075631;28;20392;-81
2020/12/10 10:17:27;;;;;;;47.13;38.20;;;7.40;99.90;;;;;;5076194;28;20441;-81
2020/12/10 10:19:53;;;;;;;49.77;39.07;;;7.40;99.90;;;;;;5093992;28;20396;-79
2020/12/10 10:22:19;;;;;;;49.33;40.30;;;7.50;99.90;;;;;;5093496;28;20364;-78
2020/12/10 10:24:45;;;;;;;49.90;41.10;;;7.40;99.90;;;;;;5074774;28;20425;-78
2020/12/10 10:27:11;;;;;;;55.40;45.47;;;7.50;99.90;;;;;;5074790;28;20368;-78
2020/12/10 10:29:37;;;;;;;61.17;46.43;;;7.50;99.90;;;;;;5092795;28;20357;-78
2020/12/10 10:32:05;;;;;;;156.13;104.05;;;7.60;99.90;;;;;;5074610;28;20380;-78
2020/12/10 10:34:31;;;;;;;71.80;53.30;;;7.60;99.90;;;;;;5093095;28;20514;-78
2020/12/10 10:36:57;;;;;;;88.28;65.68;;;7.70;99.90;;;;;;5092535;28;20917;-78
2020/12/10 10:39:22;;;;;;;90.93;67.68;;;7.80;99.90;;;;;;5093004;28;20367;-78
2020/12/10 10:41:49;;;;;;;69.43;55.75;;;7.80;99.90;;;;;;5092846;28;20376;-78
2020/12/10 10:44:16;;;;;;;48.88;41.65;;;7.80;99.90;;;;;;5092706;28;20412;-78
2020/12/10 10:46:42;;;;;;;68.35;53.72;;;7.80;99.90;;;;;;5073885;28;20372;-78
2020/12/10 10:49:08;;;;;;;50.92;41.85;;;7.70;99.90;;;;;;5074636;28;20396;-78
2020/12/10 10:51:35;;;;;;;76.78;54.10;;;7.70;99.90;;;;;;5074495;28;20372;-78
2020/12/10 10:54:01;;;;;;;85.00;65.72;;;7.60;99.90;;;;;;5092709;28;20367;-78
2020/12/10 10:56:27;;;;;;;97.32;70.00;;;7.70;99.90;;;;;;5075365;28;20412;-78
2020/12/10 10:58:53;;;;;;;152.40;96.07;;;7.80;99.90;;;;;;5089738;28;20446;-77
2020/12/10 11:01:29;;;;;;;173.55;108.35;;;7.90;99.90;;;;;;5091329;28;20467;-77
2020/12/10 11:03:55;;;;;;;81.65;62.42;;;7.90;99.90;;;;;;5091777;28;20357;-78
2020/12/10 11:06:21;;;;;;;100.43;73.13;;;7.70;99.90;;;;;;5092484;28;20360;-77
2020/12/10 11:08:47;;;;;;;84.55;65.90;;;7.80;99.90;;;;;;5074665;28;20376;-81
2020/12/10 11:11:21;;;;;;;97.38;72.57;;;8.10;99.90;;;;;;5092903;28;20407;-80
2020/12/10 11:13:48;;;;;;;89.50;68.65;;;8.30;99.90;;;;;;5074641;28;20421;-81
2020/12/10 11:16:14;;;;;;;98.20;72.50;;;8.40;99.90;;;;;;5074507;28;20766;-80
2020/12/10 11:18:41;;;;;;;105.23;78.57;;;8.50;99.90;;;;;;5092861;28;20414;-80
2020/12/10 11:21:07;;;;;;;100.23;75.50;;;8.50;99.90;;;;;;5093005;28;20367;-80
2020/12/10 11:23:38;;;;;;;101.95;73.60;;;8.50;99.90;;;;;;5092969;28;20365;-80
2020/12/10 11:26:04;;;;;;;115.13;83.73;;;8.50;99.90;;;;;;5074306;28;20530;-81
2020/12/10 11:28:30;;;;;;;122.70;90.80;;;8.60;99.90;;;;;;5092946;28;20754;-80
2020/12/10 11:30:56;;;;;;;141.43;107.00;;;8.70;99.90;;;;;;5092735;28;20368;-81
2020/12/10 11:33:23;;;;;;;147.50;109.93;;;8.60;99.90;;;;;;5074547;28;20392;-80
2020/12/10 11:35:49;;;;;;;153.88;117.47;;;8.60;99.90;;;;;;5074526;28;20388;-80
2020/12/10 11:38:14;;;;;;;167.48;124.05;;;8.50;99.90;;;;;;5074609;28;20361;-80
2020/12/10 11:40:41;;;;;;;199.37;141.20;;;8.40;99.90;;;;;;5075012;28;20676;-80
2020/12/10 11:43:07;;;;;;;132.07;96.07;;;8.40;99.90;;;;;;5092327;28;20871;-82
2020/12/10 11:45:33;;;;;;;119.90;85.78;;;8.40;99.90;;;;;;5092106;28;20376;-82
2020/12/10 11:48:03;;;;;;;107.82;78.28;;;8.40;99.90;;;;;;5092990;28;20852;-81
2020/12/10 11:50:31;;;;;;;105.47;80.15;;;8.30;99.90;;;;;;5074649;28;20371;-81
2020/12/10 11:52:57;;;;;;;106.88;77.50;;;8.30;99.90;;;;;;5074315;28;20384;-80
2020/12/10 11:55:23;;;;;;;134.27;92.88;;;8.30;99.90;;;;;;5092636;28;20383;-81
2020/12/10 11:57:49;;;;;;;112.68;77.82;;;8.20;99.90;;;;;;5074218;28;20455;-81
2020/12/10 12:00:16;;;;;;;106.05;76.55;;;8.20;99.90;;;;;;5091948;28;20380;-81
2020/12/10 12:02:42;;;;;;;166.23;112.57;;;8.10;99.90;;;;;;5087793;28;20409;-80
2020/12/10 12:05:09;;;;;;;397.02;286.10;;;8.20;99.90;;;;;;5091575;28;20368;-80
2020/12/10 12:07:37;;;;;;;216.40;149.25;;;8.20;99.90;;;;;;5073022;28;20399;-81
2020/12/10 12:10:05;;;;;;;134.73;91.53;;;8.10;99.90;;;;;;5071837;28;20400;-79
2020/12/10 12:12:34;;;;;;;186.18;126.75;;;8.10;99.90;;;;;;5071289;28;20387;-80
2020/12/10 12:15:02;;;;;;;239.00;175.02;;;8.10;99.90;;;;;;5090927;28;20388;-80
2020/12/10 12:17:28;;;;;;;148.60;107.10;;;8.10;99.90;;;;;;5091178;28;20360;-81
2020/12/10 12:19:54;;;;;;;104.72;77.35;;;8.10;99.90;;;;;;5072866;28;20380;-80
2020/12/10 12:22:19;;;;;;;110.03;71.28;;;8.10;99.90;;;;;;5091868;28;20416;-80
2020/12/10 12:24:45;;;;;;;129.00;80.70;;;8.20;99.90;;;;;;5073056;28;20727;-80
2020/12/10 12:27:12;;;;;;;259.65;140.52;;;8.20;99.90;;;;;;5091735;28;20372;-80
2020/12/10 12:29:40;;;;;;;230.27;119.30;;;8.10;99.90;;;;;;5073866;28;20376;-80
2020/12/10 12:32:07;;;;;;;113.93;69.50;;;8.20;99.90;;;;;;5091303;28;20741;-80
2020/12/10 12:34:34;;;;;;;136.33;77.57;;;8.20;99.90;;;;;;5073186;28;20877;-82
2020/12/10 12:36:59;;;;;;;149.55;91.82;;;8.10;99.90;;;;;;5091936;28;20425;-79
2020/12/10 12:39:25;;;;;;;159.93;102.90;;;8.10;99.90;;;;;;5092085;28;20376;-79
2020/12/10 12:41:51;;;;;;;131.32;82.80;;;8.00;99.90;;;;;;5092074;28;20920;-80
2020/12/10 12:44:17;;;;;;;107.77;72.90;;;8.00;99.90;;;;;;5092310;28;20759;-80
2020/12/10 12:46:43;;;;;;;119.63;75.00;;;8.00;99.90;;;;;;5091963;28;20399;-80